createdAt,value
2018-12-18T00:00:48.323Z,4.20
2018-12-18T00:03:18.873Z,4.20
2018-12-18T00:05:47.769Z,4.20
2018-12-18T00:08:17.246Z,4.20
2018-12-18T00:10:46.610Z,4.20
2018-12-18T00:13:16.043Z,4.20
2018-12-18T00:15:45.305Z,4.20
2018-12-18T00:18:13.496Z,4.10
2018-12-18T00:20:42.211Z,4.10
2018-12-18T00:23:11.752Z,4.10
2018-12-18T00:25:40.951Z,4.10
2018-12-18T00:28:10.770Z,4.20
2018-12-18T00:30:41.468Z,4.20
2018-12-18T00:33:10.663Z,4.30
2018-12-18T00:35:39.453Z,4.20
2018-12-18T00:38:07.535Z,4.20
2018-12-18T00:40:36.798Z,4.20
2018-12-18T00:43:04.993Z,4.20
2018-12-18T00:45:34.056Z,4.20
2018-12-18T00:48:02.826Z,4.20
2018-12-18T00:50:32.546Z,4.20
2018-12-18T00:53:02.635Z,4.10
2018-12-18T00:55:31.390Z,4.10
2018-12-18T00:58:00.005Z,4.20
2018-12-18T01:00:28.538Z,4.10
2018-12-18T01:02:58.454Z,4.10
2018-12-18T01:05:26.643Z,4.10
2018-12-18T01:07:56.254Z,4.00
2018-12-18T01:10:26.195Z,4.00
2018-12-18T01:12:54.169Z,4.00
2018-12-18T01:15:24.239Z,4.10
2018-12-18T01:17:53.363Z,4.00
2018-12-18T01:20:21.379Z,3.90
2018-12-18T01:22:50.053Z,3.80
2018-12-18T01:25:18.092Z,3.90
2018-12-18T01:27:46.429Z,3.70
2018-12-18T01:30:15.139Z,3.80
2018-12-18T01:32:43.198Z,3.70
2018-12-18T01:35:12.032Z,3.50
2018-12-18T01:37:40.202Z,3.50
2018-12-18T01:40:09.688Z,3.40
2018-12-18T01:42:39.566Z,3.30
2018-12-18T01:45:07.836Z,3.30
2018-12-18T01:47:36.432Z,3.20
2018-12-18T01:50:04.910Z,3.20
2018-12-18T01:52:33.680Z,3.10
2018-12-18T01:55:05.865Z,3.00
2018-12-18T01:57:34.208Z,2.80
2018-12-18T02:00:03.611Z,2.90
2018-12-18T02:02:31.718Z,2.80
2018-12-18T02:05:00.320Z,2.70
2018-12-18T02:07:30.202Z,2.70
2018-12-18T02:09:58.339Z,2.70
2018-12-18T02:12:28.958Z,2.80
2018-12-18T02:14:58.327Z,2.90
2018-12-18T02:17:27.316Z,2.70
2018-12-18T02:19:56.756Z,2.80
2018-12-18T02:22:26.066Z,2.90
2018-12-18T02:24:54.863Z,2.80
2018-12-18T02:27:23.525Z,2.80
2018-12-18T02:29:51.694Z,2.70
2018-12-18T02:32:19.772Z,2.50
2018-12-18T02:34:48.161Z,2.40
2018-12-18T02:37:17.620Z,2.40
2018-12-18T02:39:45.621Z,2.40
2018-12-18T02:42:13.943Z,2.40
2018-12-18T02:44:42.781Z,2.40
2018-12-18T02:47:11.363Z,2.30
2018-12-18T02:49:41.579Z,2.40
2018-12-18T02:52:11.245Z,2.50
2018-12-18T02:54:41.257Z,2.50
2018-12-18T02:57:09.831Z,2.30
2018-12-18T02:59:37.918Z,2.10
2018-12-18T03:02:05.700Z,2.30
2018-12-18T03:04:33.857Z,2.40
2018-12-18T03:07:02.692Z,2.40
2018-12-18T03:09:32.492Z,2.70
2018-12-18T03:12:00.478Z,2.80
2018-12-18T03:14:29.595Z,2.90
2018-12-18T03:16:58.303Z,3.00
2018-12-18T03:19:26.803Z,3.10
2018-12-18T03:21:56.988Z,3.20
2018-12-18T03:24:27.041Z,3.20
2018-12-18T03:26:57.558Z,3.20
2018-12-18T03:29:26.511Z,3.20
2018-12-18T03:31:59.501Z,3.20
2018-12-18T03:34:29.136Z,3.10
2018-12-18T03:36:58.015Z,3.20
2018-12-18T03:39:26.585Z,3.20
2018-12-18T03:41:55.991Z,3.30
2018-12-18T03:44:25.609Z,3.30
2018-12-18T03:46:55.633Z,3.30
2018-12-18T03:49:24.364Z,3.30
2018-12-18T03:51:53.385Z,3.40
2018-12-18T03:54:22.783Z,3.30
2018-12-18T03:56:51.644Z,3.30
2018-12-18T03:59:21.508Z,3.30
2018-12-18T04:01:52.142Z,3.20
2018-12-18T04:04:20.147Z,3.10
2018-12-18T04:06:48.244Z,3.30
2018-12-18T04:09:18.318Z,3.20
2018-12-18T04:11:51.806Z,3.30
2018-12-18T04:14:20.604Z,3.30
2018-12-18T04:16:49.242Z,3.10
2018-12-18T04:19:18.519Z,3.30
2018-12-18T04:21:48.168Z,3.40
2018-12-18T04:24:16.594Z,3.20
2018-12-18T04:26:45.275Z,3.20
2018-12-18T04:29:14.070Z,3.30
2018-12-18T04:31:42.927Z,3.40
2018-12-18T04:34:11.596Z,3.40
2018-12-18T04:36:40.902Z,3.50
2018-12-18T04:39:09.141Z,3.60
2018-12-18T04:41:38.534Z,3.60
2018-12-18T04:44:07.169Z,3.60
2018-12-18T04:46:36.735Z,3.60
2018-12-18T04:49:06.851Z,3.70
2018-12-18T04:51:36.092Z,3.60
2018-12-18T04:54:04.151Z,3.30
2018-12-18T04:56:32.928Z,3.40
2018-12-18T04:59:01.064Z,3.50
2018-12-18T05:01:29.788Z,3.50
2018-12-18T05:03:59.066Z,3.60
2018-12-18T05:06:27.029Z,3.70
2018-12-18T05:08:55.567Z,3.70
2018-12-18T05:11:24.941Z,3.40
2018-12-18T05:13:54.397Z,3.30
2018-12-18T05:16:24.431Z,3.40
2018-12-18T05:18:53.256Z,3.40
2018-12-18T05:21:22.559Z,3.30
2018-12-18T05:23:51.440Z,3.40
2018-12-18T05:26:20.912Z,3.30
2018-12-18T05:28:49.607Z,3.30
2018-12-18T05:31:18.291Z,3.40
2018-12-18T05:33:46.279Z,3.50
2018-12-18T05:36:15.129Z,3.50
2018-12-18T05:38:43.808Z,3.60
2018-12-18T05:41:12.591Z,3.60
2018-12-18T05:43:40.621Z,3.60
2018-12-18T05:46:09.890Z,3.70
2018-12-18T05:48:38.080Z,3.70
2018-12-18T05:51:08.936Z,3.60
2018-12-18T05:53:37.108Z,3.50
2018-12-18T05:56:07.091Z,3.40
2018-12-18T05:58:35.064Z,3.40
2018-12-18T06:01:07.739Z,3.40
2018-12-18T06:03:37.069Z,3.40
2018-12-18T06:06:06.351Z,3.30
2018-12-18T06:08:34.485Z,3.40
2018-12-18T06:11:03.603Z,3.30
2018-12-18T06:13:32.871Z,3.20
2018-12-18T06:16:01.753Z,3.20
2018-12-18T06:18:30.673Z,3.00
2018-12-18T06:21:03.244Z,3.00
2018-12-18T06:23:32.028Z,2.90
2018-12-18T06:26:02.125Z,2.80
2018-12-18T06:28:30.760Z,2.80
2018-12-18T06:30:59.091Z,2.70
2018-12-18T06:33:32.471Z,2.60
2018-12-18T06:36:01.370Z,2.60
2018-12-18T06:38:30.652Z,2.80
2018-12-18T06:40:59.389Z,2.80
2018-12-18T06:43:28.392Z,2.70
2018-12-18T06:45:56.567Z,2.60
2018-12-18T06:48:32.589Z,2.60
2018-12-18T06:51:01.498Z,2.40
2018-12-18T06:53:30.649Z,2.40
2018-12-18T06:55:59.912Z,2.70
2018-12-18T06:58:28.709Z,2.90
2018-12-18T07:01:03.975Z,2.90
2018-12-18T07:03:33.256Z,3.00
2018-12-18T07:06:02.701Z,3.10
2018-12-18T07:08:31.213Z,3.10
2018-12-18T07:10:59.950Z,3.10
2018-12-18T07:13:29.054Z,3.10
2018-12-18T07:16:01.315Z,3.20
2018-12-18T07:18:30.109Z,3.30
2018-12-18T07:20:59.439Z,3.40
2018-12-18T07:23:28.273Z,3.40
2018-12-18T07:25:56.447Z,3.40
2018-12-18T07:28:25.323Z,3.40
2018-12-18T07:33:32.624Z,3.40
2018-12-18T07:36:00.912Z,3.30
2018-12-18T07:38:30.196Z,3.30
2018-12-18T07:40:58.426Z,3.20
2018-12-18T07:43:26.492Z,3.20
2018-12-18T07:46:01.322Z,3.20
2018-12-18T07:48:32.482Z,3.30
2018-12-18T07:51:01.248Z,3.10
2018-12-18T07:53:29.426Z,3.10
2018-12-18T07:56:00.301Z,2.80
2018-12-18T07:58:28.331Z,2.70
2018-12-18T08:01:03.267Z,2.70
2018-12-18T08:03:37.273Z,2.50
2018-12-18T08:06:05.935Z,2.80
2018-12-18T08:08:34.234Z,3.10
2018-12-18T08:11:04.503Z,3.10
2018-12-18T08:13:32.599Z,3.20
2018-12-18T08:16:11.100Z,3.40
2018-12-18T08:18:40.452Z,3.70
2018-12-18T08:21:08.627Z,3.90
2018-12-18T08:23:36.735Z,4.10
2018-12-18T08:26:06.267Z,4.40
2018-12-18T08:28:35.119Z,4.70
2018-12-18T08:31:18.622Z,4.80
2018-12-18T08:33:54.741Z,4.30
2018-12-18T08:36:23.913Z,4.30
2018-12-18T08:38:51.990Z,4.10
2018-12-18T08:41:21.300Z,4.30
2018-12-18T08:43:50.134Z,4.30
2018-12-18T08:46:19.225Z,4.00
2018-12-18T08:48:49.741Z,4.00
2018-12-18T08:51:19.572Z,4.00
2018-12-18T08:53:47.791Z,4.00
2018-12-18T08:56:16.378Z,4.00
2018-12-18T08:58:45.120Z,4.20
2018-12-18T09:01:15.303Z,4.30
2018-12-18T09:03:44.399Z,4.70
2018-12-18T09:06:15.881Z,5.30
2018-12-18T09:08:44.582Z,5.60
2018-12-18T09:11:14.074Z,6.00
2018-12-18T09:13:43.477Z,5.80
2018-12-18T09:16:18.309Z,5.90
2018-12-18T09:18:48.754Z,5.70
2018-12-18T09:21:18.392Z,5.40
2018-12-18T09:23:46.479Z,5.40
2018-12-18T09:26:17.148Z,5.00
2018-12-18T09:28:45.935Z,4.70
2018-12-18T09:31:22.880Z,4.40
2018-12-18T09:33:52.579Z,4.50
2018-12-18T09:36:21.883Z,4.70
2018-12-18T09:38:58.553Z,5.00
2018-12-18T09:41:31.286Z,5.20
2018-12-18T09:44:06.110Z,5.50
2018-12-18T09:46:41.547Z,5.60
2018-12-18T09:49:09.729Z,5.60
2018-12-18T09:51:38.348Z,5.70
2018-12-18T09:54:08.246Z,5.60
2018-12-18T09:56:45.871Z,5.60
2018-12-18T09:59:18.393Z,5.80
2018-12-18T10:01:48.430Z,6.00
2018-12-18T10:04:17.927Z,5.90
2018-12-18T10:06:46.040Z,5.90
2018-12-18T10:09:14.207Z,5.90
2018-12-18T10:11:43.105Z,5.70
2018-12-18T10:14:17.101Z,5.80
2018-12-18T10:16:53.942Z,6.00
2018-12-18T10:19:24.501Z,6.20
2018-12-18T10:21:57.363Z,6.30
2018-12-18T10:24:26.584Z,6.40
2018-12-18T10:26:55.240Z,6.30
2018-12-18T10:29:24.653Z,6.40
2018-12-18T10:31:55.688Z,6.50
2018-12-18T10:34:26.622Z,6.60
2018-12-18T10:36:58.585Z,6.70
2018-12-18T10:39:28.742Z,6.70
2018-12-18T10:42:01.150Z,6.90
2018-12-18T10:44:31.609Z,6.90
2018-12-18T10:47:08.596Z,7.00
2018-12-18T10:49:45.226Z,7.00
2018-12-18T10:52:14.731Z,7.00
2018-12-18T10:54:43.755Z,6.80
2018-12-18T10:57:14.833Z,6.90
2018-12-18T10:59:47.478Z,6.80
2018-12-18T11:02:15.939Z,6.70
2018-12-18T11:04:45.359Z,6.60
2018-12-18T11:07:15.921Z,6.50
2018-12-18T11:09:44.577Z,6.40
2018-12-18T11:12:16.509Z,6.50
2018-12-18T11:14:47.629Z,6.60
2018-12-18T11:17:21.293Z,6.50
2018-12-18T11:19:52.290Z,6.50
2018-12-18T11:22:24.668Z,6.70
2018-12-18T11:24:55.138Z,6.50
2018-12-18T11:27:26.573Z,6.30
2018-12-18T11:29:57.548Z,6.30
2018-12-18T11:32:33.126Z,6.20
2018-12-18T11:35:04.505Z,6.10
2018-12-18T11:37:34.876Z,6.40
2018-12-18T11:40:03.481Z,6.50
2018-12-18T11:42:32.643Z,6.40
2018-12-18T11:45:06.939Z,6.20
2018-12-18T11:47:36.785Z,6.40
2018-12-18T11:50:05.798Z,6.40
2018-12-18T11:52:39.406Z,6.50
2018-12-18T11:55:09.955Z,6.60
2018-12-18T11:57:38.934Z,6.50
2018-12-18T12:00:15.239Z,6.20
2018-12-18T12:02:48.724Z,6.20
2018-12-18T12:05:19.367Z,6.00
2018-12-18T12:07:50.443Z,6.20
2018-12-18T12:13:04.361Z,6.20
2018-12-18T12:15:35.302Z,6.30
2018-12-18T12:18:07.417Z,6.30
2018-12-18T12:20:39.443Z,6.40
2018-12-18T12:23:07.818Z,6.40
2018-12-18T12:25:38.348Z,6.40
2018-12-18T12:28:12.741Z,6.50
2018-12-18T12:30:41.750Z,6.50
2018-12-18T12:33:16.896Z,6.20
2018-12-18T12:35:55.407Z,6.10
2018-12-18T12:38:24.955Z,6.20
2018-12-18T12:41:02.689Z,6.10
2018-12-18T12:43:33.544Z,6.10
2018-12-18T12:46:03.799Z,6.10
2018-12-18T12:48:54.825Z,6.20
2018-12-18T12:51:24.317Z,6.30
2018-12-18T12:53:54.080Z,6.40
2018-12-18T12:56:23.074Z,6.40
2018-12-18T12:58:53.485Z,6.40
2018-12-18T13:01:22.799Z,6.30
2018-12-18T13:03:53.653Z,6.30
2018-12-18T13:06:22.421Z,6.40
2018-12-18T13:08:51.563Z,6.50
2018-12-18T13:11:20.907Z,6.30
2018-12-18T13:13:54.170Z,6.00
2018-12-18T13:16:23.847Z,5.70
2018-12-18T13:18:53.627Z,5.70
2018-12-18T13:21:22.767Z,5.80
2018-12-18T13:23:51.943Z,6.00
2018-12-18T13:26:20.764Z,6.00
2018-12-18T13:28:53.988Z,6.00
2018-12-18T13:31:24.597Z,6.00
2018-12-18T13:33:56.413Z,6.00
2018-12-18T13:36:28.453Z,6.10
2018-12-18T13:38:59.111Z,6.10
2018-12-18T13:41:27.143Z,5.90
2018-12-18T13:43:57.113Z,5.70
2018-12-18T13:46:26.518Z,5.60
2018-12-18T13:48:57.113Z,5.30
2018-12-18T13:51:26.506Z,5.40
2018-12-18T13:53:56.550Z,5.40
2018-12-18T13:56:26.167Z,5.40
2018-12-18T13:58:55.675Z,5.50
2018-12-18T14:01:25.931Z,5.60
2018-12-18T14:03:55.527Z,5.40
2018-12-18T14:06:24.478Z,5.40
2018-12-18T14:08:53.219Z,5.40
2018-12-18T14:11:21.726Z,5.40
2018-12-18T14:13:52.183Z,5.30
2018-12-18T14:16:22.876Z,5.30
2018-12-18T14:18:52.386Z,5.20
2018-12-18T14:21:22.922Z,5.10
2018-12-18T14:23:52.665Z,5.00
2018-12-18T14:26:21.085Z,5.00
2018-12-18T14:28:51.496Z,5.00
2018-12-18T14:31:20.986Z,4.90
2018-12-18T14:33:50.420Z,4.80
2018-12-18T14:36:19.764Z,4.60
2018-12-18T14:38:48.559Z,4.40
2018-12-18T14:41:16.656Z,4.30
2018-12-18T14:43:45.369Z,4.10
2018-12-18T14:46:13.483Z,4.10
2018-12-18T14:48:42.463Z,4.20
2018-12-18T14:51:12.629Z,4.10
2018-12-18T14:53:42.016Z,4.00
2018-12-18T14:56:14.482Z,3.80
2018-12-18T14:58:44.162Z,3.70
2018-12-18T15:01:13.076Z,3.70
2018-12-18T15:03:43.892Z,3.60
2018-12-18T15:06:13.632Z,3.70
2018-12-18T15:08:42.663Z,3.50
2018-12-18T15:11:11.459Z,3.60
2018-12-18T15:13:42.854Z,3.50
2018-12-18T15:16:12.096Z,3.40
2018-12-18T15:18:45.018Z,3.40
2018-12-18T15:21:15.779Z,3.40
2018-12-18T15:23:46.002Z,3.40
2018-12-18T15:26:18.336Z,3.40
2018-12-18T15:28:52.204Z,3.30
2018-12-18T15:31:22.068Z,3.10
2018-12-18T15:33:54.287Z,2.90
2018-12-18T15:36:24.404Z,2.70
2018-12-18T15:38:54.264Z,2.60
2018-12-18T15:41:24.927Z,2.50
2018-12-18T15:44:04.392Z,2.40
2018-12-18T15:46:34.051Z,2.30
2018-12-18T15:49:03.875Z,2.30
2018-12-18T15:51:33.221Z,2.30
2018-12-18T15:54:03.887Z,2.30
2018-12-18T15:56:34.463Z,2.20
2018-12-18T15:59:04.676Z,2.30
2018-12-18T16:01:32.758Z,2.20
2018-12-18T16:04:02.809Z,2.20
2018-12-18T16:06:31.953Z,2.20
2018-12-18T16:09:04.263Z,2.00
2018-12-18T16:11:33.729Z,2.10
2018-12-18T16:14:05.518Z,2.10
2018-12-18T16:16:35.122Z,2.10
2018-12-18T16:19:07.749Z,2.10
2018-12-18T16:21:38.816Z,1.90
2018-12-18T16:24:08.421Z,1.70
2018-12-18T16:26:38.288Z,1.60
2018-12-18T16:29:10.006Z,1.50
2018-12-18T16:31:38.688Z,1.30
2018-12-18T16:34:08.287Z,1.10
2018-12-18T16:36:37.559Z,1.00
2018-12-18T16:39:08.551Z,0.90
2018-12-18T16:41:38.240Z,0.90
2018-12-18T16:44:07.781Z,0.90
2018-12-18T16:46:36.121Z,1.00
2018-12-18T16:49:04.781Z,0.80
2018-12-18T16:51:34.205Z,0.90
2018-12-18T16:54:07.095Z,0.90
2018-12-18T16:56:35.789Z,0.70
2018-12-18T16:59:09.788Z,0.50
2018-12-18T17:01:40.132Z,0.40
2018-12-18T17:04:13.482Z,0.30
2018-12-18T17:06:41.752Z,0.30
2018-12-18T17:09:16.720Z,0.30
2018-12-18T17:11:53.313Z,0.40
2018-12-18T17:14:21.594Z,0.50
2018-12-18T17:16:51.369Z,0.50
2018-12-18T17:19:26.422Z,0.60
2018-12-18T17:21:55.513Z,0.60
2018-12-18T17:24:25.815Z,0.70
2018-12-18T17:29:34.149Z,0.80
2018-12-18T17:32:07.556Z,0.80
2018-12-18T17:34:38.447Z,0.80
2018-12-18T17:37:07.162Z,0.80
2018-12-18T17:39:45.117Z,0.80
2018-12-18T17:42:16.939Z,0.80
2018-12-18T17:47:34.131Z,0.50
2018-12-18T17:50:08.040Z,0.40
2018-12-18T17:52:40.115Z,0.40
2018-12-18T17:55:15.285Z,0.30
2018-12-18T17:57:50.329Z,0.10
2018-12-18T18:00:35.900Z,0.00
2018-12-18T18:03:11.458Z,-0.10
2018-12-18T18:05:56.875Z,-0.20
2018-12-18T18:08:30.653Z,-0.20
2018-12-18T18:13:46.852Z,-0.20
2018-12-18T18:16:22.802Z,-0.20
2018-12-18T18:18:53.810Z,-0.20
2018-12-18T18:21:24.708Z,-0.30
2018-12-18T18:23:54.358Z,-0.40
2018-12-18T18:26:23.486Z,-0.40
2018-12-18T18:28:57.984Z,-0.30
2018-12-18T18:31:27.756Z,-0.30
2018-12-18T18:34:02.451Z,-0.50
2018-12-18T18:36:31.903Z,-0.60
2018-12-18T18:39:08.280Z,-0.60
2018-12-18T18:41:51.335Z,-0.70
2018-12-18T18:44:24.159Z,-0.80
2018-12-18T18:46:56.885Z,-0.70
2018-12-18T18:49:28.716Z,-0.70
2018-12-18T18:51:57.183Z,-0.70
2018-12-18T18:54:37.294Z,-0.60
2018-12-18T18:57:14.441Z,-0.60
2018-12-18T18:59:43.569Z,-0.60
2018-12-18T19:04:57.481Z,-0.80
2018-12-18T19:07:29.229Z,-0.80
2018-12-18T19:10:05.353Z,-0.60
2018-12-18T19:12:45.853Z,-0.50
2018-12-18T19:15:14.666Z,-0.50
2018-12-18T19:17:55.736Z,-0.50
2018-12-18T19:20:38.433Z,-0.60
2018-12-18T19:23:13.802Z,-0.60
2018-12-18T19:25:50.619Z,-0.60
2018-12-18T19:31:02.863Z,-0.50
2018-12-18T19:33:38.380Z,-0.50
2018-12-18T19:36:08.446Z,-0.50
2018-12-18T19:38:37.756Z,-0.50
2018-12-18T19:41:07.409Z,-0.40
2018-12-18T19:43:43.978Z,-0.30
2018-12-18T19:49:06.434Z,-0.10
2018-12-18T19:51:35.277Z,0.00
2018-12-18T19:54:08.288Z,0.10
2018-12-18T19:56:40.851Z,0.20
2018-12-18T19:59:16.436Z,0.40
2018-12-18T20:01:50.298Z,0.50
2018-12-18T20:04:27.854Z,0.60
2018-12-18T20:07:12.295Z,0.60
2018-12-18T20:09:44.589Z,0.70
2018-12-18T20:12:21.336Z,0.90
2018-12-18T20:14:51.760Z,1.00
2018-12-18T20:20:05.899Z,1.20
2018-12-18T20:22:34.231Z,1.20
2018-12-18T20:25:06.999Z,1.40
2018-12-18T20:27:40.907Z,1.40
2018-12-18T20:30:21.557Z,1.50
2018-12-18T20:32:51.113Z,1.60
2018-12-18T20:35:26.323Z,1.70
2018-12-18T20:40:38.830Z,1.70
2018-12-18T20:48:37.600Z,2.10
2018-12-18T20:51:06.552Z,2.10
2018-12-18T20:53:46.287Z,2.20
2018-12-18T20:56:23.174Z,2.40
2018-12-18T20:58:58.761Z,2.60
2018-12-18T21:01:32.423Z,2.60
2018-12-18T21:04:06.114Z,2.70
2018-12-18T21:06:35.773Z,2.70
2018-12-18T21:09:10.171Z,2.80
2018-12-18T21:11:57.670Z,2.60
2018-12-18T21:14:27.837Z,2.70
2018-12-18T21:16:56.969Z,2.70
2018-12-18T21:19:27.344Z,2.90
2018-12-18T21:22:01.224Z,2.90
2018-12-18T21:24:32.648Z,2.80
2018-12-18T21:27:10.294Z,2.60
2018-12-18T21:29:41.528Z,2.50
2018-12-18T21:32:14.912Z,2.60
2018-12-18T21:34:46.779Z,2.80
2018-12-18T21:37:18.026Z,2.80
2018-12-18T21:39:49.877Z,2.70
2018-12-18T21:42:18.965Z,2.60
2018-12-18T21:44:58.827Z,2.90
2018-12-18T21:47:29.146Z,3.00
2018-12-18T21:49:58.960Z,3.00
2018-12-18T21:52:28.387Z,2.90
2018-12-18T21:54:57.219Z,2.90
2018-12-18T21:57:27.292Z,3.00
2018-12-18T21:59:59.055Z,3.10
2018-12-18T22:02:35.502Z,3.30
2018-12-18T22:05:05.175Z,3.30
2018-12-18T22:07:34.940Z,3.40
2018-12-18T22:10:06.203Z,3.30
2018-12-18T22:12:35.666Z,3.10
2018-12-18T22:15:04.756Z,2.90
2018-12-18T22:17:34.379Z,2.80
2018-12-18T22:20:03.169Z,2.80
2018-12-18T22:22:33.353Z,3.10
2018-12-18T22:25:04.297Z,3.20
2018-12-18T22:27:34.823Z,3.30
2018-12-18T22:30:04.665Z,2.70
2018-12-18T22:32:33.863Z,3.00
2018-12-18T22:35:05.101Z,3.00
2018-12-18T22:37:33.715Z,2.80
2018-12-18T22:40:04.114Z,2.20
2018-12-18T22:42:33.236Z,2.20
2018-12-18T22:45:02.402Z,2.10
2018-12-18T22:47:30.523Z,2.30
2018-12-18T22:49:59.872Z,2.00
2018-12-18T22:52:28.492Z,2.40
2018-12-18T22:54:57.562Z,2.70
2018-12-18T22:57:26.322Z,2.70
2018-12-18T22:59:55.723Z,2.70
2018-12-18T23:02:25.632Z,2.70
2018-12-18T23:04:54.408Z,2.70
2018-12-18T23:07:22.550Z,2.20
2018-12-18T23:09:51.159Z,2.20
2018-12-18T23:12:20.693Z,2.30
2018-12-18T23:14:49.027Z,1.90
2018-12-18T23:17:19.401Z,1.80
2018-12-18T23:19:49.033Z,1.80
2018-12-18T23:22:19.040Z,2.00
2018-12-18T23:24:48.879Z,2.00
2018-12-18T23:27:17.468Z,1.70
2018-12-18T23:29:46.942Z,2.10
2018-12-18T23:32:15.692Z,2.30
2018-12-18T23:34:43.762Z,2.20
2018-12-18T23:37:13.276Z,2.30
2018-12-18T23:39:41.234Z,2.50
2018-12-18T23:42:09.501Z,2.50
2018-12-18T23:44:37.526Z,2.20
2018-12-18T23:47:05.685Z,1.80
2018-12-18T23:49:34.242Z,2.00
2018-12-18T23:52:04.227Z,1.40
2018-12-18T23:54:33.470Z,1.60
2018-12-18T23:57:01.588Z,1.70
2018-12-18T23:59:30.944Z,1.20
